Lone Star Executive Airport Houston US
ICAO: KCXO
IATA: CXO
Category: Medium
Scheduled Services: No

Elevation: 245 ft
TransAlt. 18000 ft.

Airport Communications:
HOUSTON APP/DEP:119.7
ASOS:118.325
CLNC DEL:119.55
RDO:122.2
CTAF/UNICOM:122.95

KCXO Zoom In..

If you have problems with the map follow the link
https://www.worldairports.se/pages/airport.php?
ICAO=KCXO

Runways:

(A) RW 01 length 5000 ft width 100 ft
---- / hdg 12

(B) RW 14 length 6000 ft width 150 ft
ILS 108.70 / hdg 140

(C) RW 19 length 5000 ft width 100 ft
---- / hdg 192

(D) RW 32 length 6000 ft width 150 ft
---- / hdg 320

Location; KCXO
Day. 08 / Time. 22.53 Zulu
* Altimeter: 29.93
* Temperature: 20° c. 68°f.
* Wind from: 140° Speed 05 kn.
Dewpoint: 16° c.
Visibility: 10 Statute Miles.
Clouds: Scattered 4100 ft.

KCXO 082253Z 14005KT 10SM SCT041 20/16 A2993 RMK AO2 SLP135 T02000156


Wind From 140°
Speed 05 kn.

 
 
jpsmedia worldairports.se 2019   terms of use